createdAt,value
2018-07-15T00:00:15.940Z,0.00
2018-07-15T00:01:15.913Z,0.00
2018-07-15T00:02:15.888Z,0.00
2018-07-15T00:03:15.861Z,0.00
2018-07-15T00:04:15.836Z,0.00
2018-07-15T00:05:15.817Z,0.00
2018-07-15T00:06:15.782Z,0.00
2018-07-15T00:07:15.908Z,0.00
2018-07-15T00:08:15.736Z,0.00
2018-07-15T00:09:15.708Z,0.00
2018-07-15T00:10:15.687Z,0.00
2018-07-15T00:11:15.657Z,0.00
2018-07-15T00:12:15.630Z,0.00
2018-07-15T00:13:15.614Z,0.00
2018-07-15T00:14:15.584Z,0.00
2018-07-15T00:15:15.552Z,0.00
2018-07-15T00:16:15.526Z,0.00
2018-07-15T00:17:15.501Z,0.00
2018-07-15T00:18:15.476Z,0.00
2018-07-15T00:19:15.449Z,0.00
2018-07-15T00:20:15.482Z,0.00
2018-07-15T00:21:15.400Z,0.00
2018-07-15T00:22:15.374Z,0.00
2018-07-15T00:23:15.349Z,0.00
2018-07-15T00:24:15.323Z,0.00
2018-07-15T00:25:15.796Z,0.00
2018-07-15T00:26:15.271Z,0.00
2018-07-15T00:27:15.246Z,0.00
2018-07-15T00:28:15.218Z,0.00
2018-07-15T00:29:15.195Z,0.00
2018-07-15T00:30:15.167Z,0.00
2018-07-15T00:31:15.144Z,0.00
2018-07-15T00:32:15.117Z,0.00
2018-07-15T00:33:15.090Z,0.00
2018-07-15T00:34:15.069Z,0.00
2018-07-15T00:35:15.038Z,0.00
2018-07-15T00:36:15.016Z,0.00
2018-07-15T00:37:14.989Z,0.00
2018-07-15T00:38:14.962Z,0.00
2018-07-15T00:39:14.939Z,0.00
2018-07-15T00:40:14.913Z,0.00
2018-07-15T00:41:14.886Z,0.00
2018-07-15T00:42:14.862Z,0.00
2018-07-15T00:43:14.981Z,0.00
2018-07-15T00:44:14.811Z,0.00
2018-07-15T00:45:14.805Z,0.00
2018-07-15T00:46:14.761Z,0.00
2018-07-15T00:47:14.730Z,0.00
2018-07-15T00:48:14.704Z,0.00
2018-07-15T00:49:14.681Z,0.00
2018-07-15T00:50:14.652Z,0.00
2018-07-15T00:51:14.625Z,0.00
2018-07-15T00:52:14.601Z,0.00
2018-07-15T00:53:14.572Z,0.00
2018-07-15T00:54:14.548Z,0.00
2018-07-15T00:55:14.582Z,0.00
2018-07-15T00:56:14.499Z,0.00
2018-07-15T00:57:14.472Z,0.00
2018-07-15T00:58:14.445Z,0.00
2018-07-15T00:59:14.421Z,0.00
2018-07-15T01:00:14.395Z,0.00
2018-07-15T01:01:14.372Z,0.00
2018-07-15T01:02:14.341Z,0.00
2018-07-15T01:03:14.315Z,0.00
2018-07-15T01:04:14.290Z,0.00
2018-07-15T01:05:14.265Z,0.00
2018-07-15T01:06:14.238Z,0.00
2018-07-15T01:07:14.211Z,0.00
2018-07-15T01:08:14.190Z,0.00
2018-07-15T01:09:14.163Z,0.00
2018-07-15T01:10:14.136Z,0.00
2018-07-15T01:11:14.109Z,0.00
2018-07-15T01:12:14.084Z,0.00
2018-07-15T01:13:14.061Z,0.00
2018-07-15T01:14:14.031Z,0.00
2018-07-15T01:15:14.004Z,0.00
2018-07-15T01:16:13.984Z,0.00
2018-07-15T01:17:13.955Z,0.00
2018-07-15T01:18:13.929Z,0.00
2018-07-15T01:19:13.903Z,0.00
2018-07-15T01:20:13.876Z,0.00
2018-07-15T01:21:13.851Z,0.00
2018-07-15T01:22:13.825Z,0.00
2018-07-15T01:23:13.805Z,0.00
2018-07-15T01:24:13.775Z,0.00
2018-07-15T01:25:13.746Z,0.00
2018-07-15T01:26:13.720Z,0.00
2018-07-15T01:27:13.698Z,0.00
2018-07-15T01:28:13.668Z,0.00
2018-07-15T01:29:13.645Z,0.00
2018-07-15T01:30:13.618Z,0.00
2018-07-15T01:31:13.591Z,0.00
2018-07-15T01:32:13.566Z,0.00
2018-07-15T01:33:13.742Z,0.00
2018-07-15T01:34:13.513Z,0.00
2018-07-15T01:35:13.489Z,0.00
2018-07-15T01:36:13.464Z,0.00
2018-07-15T01:37:13.435Z,0.00
2018-07-15T01:38:13.409Z,0.00
2018-07-15T01:39:13.383Z,0.00
2018-07-15T01:40:13.357Z,0.00
2018-07-15T01:41:13.333Z,0.00
2018-07-15T01:42:13.313Z,0.00
2018-07-15T01:43:13.281Z,0.00
2018-07-15T01:44:13.254Z,0.00
2018-07-15T01:45:13.228Z,0.00
2018-07-15T01:46:13.201Z,0.00
2018-07-15T01:47:13.174Z,0.00
2018-07-15T01:48:13.149Z,0.00
2018-07-15T01:49:13.133Z,0.00
2018-07-15T01:50:13.100Z,0.00
2018-07-15T01:51:13.073Z,0.00
2018-07-15T01:52:13.047Z,0.00
2018-07-15T01:53:13.022Z,0.00
2018-07-15T01:54:12.996Z,0.00
2018-07-15T01:55:13.026Z,0.00
2018-07-15T01:56:12.943Z,0.00
2018-07-15T01:57:12.917Z,0.00
2018-07-15T01:58:12.892Z,0.00
2018-07-15T01:59:12.873Z,0.00
2018-07-15T02:00:13.041Z,0.00
2018-07-15T02:01:12.813Z,0.00
2018-07-15T02:02:12.788Z,0.00
2018-07-15T02:03:12.763Z,0.00
2018-07-15T02:04:12.735Z,0.00
2018-07-15T02:05:12.706Z,0.00
2018-07-15T02:06:16.719Z,0.00
2018-07-15T02:07:12.860Z,0.00
2018-07-15T02:08:12.831Z,0.00
2018-07-15T02:09:12.605Z,0.00
2018-07-15T02:10:12.638Z,0.00
2018-07-15T02:11:12.553Z,0.00
2018-07-15T02:12:12.524Z,0.00
2018-07-15T02:13:12.503Z,0.00
2018-07-15T02:14:12.477Z,0.00
2018-07-15T02:15:12.454Z,0.00
2018-07-15T02:16:12.421Z,0.00
2018-07-15T02:17:12.396Z,0.00
2018-07-15T02:18:12.368Z,0.00
2018-07-15T02:19:12.342Z,0.00
2018-07-15T02:20:12.316Z,0.00
2018-07-15T02:21:12.298Z,0.00
2018-07-15T02:22:12.266Z,0.00
2018-07-15T02:23:12.240Z,0.00
2018-07-15T02:24:12.213Z,0.00
2018-07-15T02:25:12.187Z,0.00
2018-07-15T02:26:12.163Z,0.00
2018-07-15T02:27:12.134Z,0.00
2018-07-15T02:28:12.109Z,0.00
2018-07-15T02:29:12.081Z,0.00
2018-07-15T02:30:12.055Z,0.00
2018-07-15T02:31:12.029Z,0.00
2018-07-15T02:32:12.004Z,0.00
2018-07-15T02:33:11.983Z,0.00
2018-07-15T02:34:11.952Z,0.00
2018-07-15T02:35:11.930Z,0.00
2018-07-15T02:36:11.900Z,0.00
2018-07-15T02:37:11.873Z,0.00
2018-07-15T02:38:11.848Z,0.00
2018-07-15T02:39:11.822Z,0.00
2018-07-15T02:40:11.798Z,0.00
2018-07-15T02:41:11.771Z,0.00
2018-07-15T02:42:11.755Z,0.00
2018-07-15T02:43:11.722Z,0.00
2018-07-15T02:44:11.693Z,0.00
2018-07-15T02:45:11.663Z,0.00
2018-07-15T02:46:11.641Z,0.00
2018-07-15T02:47:11.610Z,0.00
2018-07-15T02:48:11.586Z,0.00
2018-07-15T02:49:11.560Z,5.63
2018-07-15T02:50:11.535Z,5.63
2018-07-15T02:51:11.508Z,5.63
2018-07-15T02:52:11.493Z,5.63
2018-07-15T02:53:11.454Z,5.63
2018-07-15T02:54:11.428Z,5.63
2018-07-15T02:55:11.400Z,5.63
2018-07-15T02:56:11.377Z,11.25
2018-07-15T02:57:11.348Z,11.25
2018-07-15T02:58:11.326Z,11.25
2018-07-15T02:59:11.296Z,11.25
2018-07-15T03:00:11.269Z,11.25
2018-07-15T03:01:11.246Z,16.88
2018-07-15T03:02:11.222Z,16.88
2018-07-15T03:03:11.193Z,16.88
2018-07-15T03:04:11.168Z,16.88
2018-07-15T03:05:11.139Z,22.50
2018-07-15T03:06:11.113Z,22.50
2018-07-15T03:07:11.291Z,22.50
2018-07-15T03:08:11.060Z,28.13
2018-07-15T03:09:11.037Z,28.13
2018-07-15T03:10:11.012Z,28.13
2018-07-15T03:11:10.984Z,33.75
2018-07-15T03:12:10.958Z,33.75
2018-07-15T03:13:10.930Z,39.38
2018-07-15T03:14:10.907Z,39.38
2018-07-15T03:15:11.029Z,39.38
2018-07-15T03:16:10.855Z,45.00
2018-07-15T03:17:10.845Z,45.00
2018-07-15T03:18:11.000Z,50.63
2018-07-15T03:19:10.974Z,50.63
2018-07-15T03:20:10.747Z,56.25
2018-07-15T03:21:10.720Z,56.25
2018-07-15T03:22:10.696Z,61.88
2018-07-15T03:23:10.669Z,67.50
2018-07-15T03:24:10.642Z,67.50
2018-07-15T03:25:10.618Z,73.13
2018-07-15T03:26:11.292Z,73.13
2018-07-15T03:27:10.764Z,78.75
2018-07-15T03:28:10.536Z,84.38
2018-07-15T03:29:10.511Z,84.38
2018-07-15T03:30:10.484Z,90.00
2018-07-15T03:31:10.458Z,90.00
2018-07-15T03:32:10.432Z,90.00
2018-07-15T03:33:10.407Z,95.63
2018-07-15T03:34:10.408Z,101.25
2018-07-15T03:35:10.357Z,101.25
2018-07-15T03:36:10.330Z,106.88
2018-07-15T03:37:10.303Z,112.50
2018-07-15T03:38:10.274Z,112.50
2018-07-15T03:39:10.247Z,118.13
2018-07-15T03:40:10.220Z,123.75
2018-07-15T03:41:10.198Z,129.38
2018-07-15T03:42:10.171Z,129.38
2018-07-15T03:43:10.145Z,135.00
2018-07-15T03:44:10.124Z,140.63
2018-07-15T03:45:10.104Z,146.25
2018-07-15T03:46:10.067Z,151.88
2018-07-15T03:47:10.040Z,151.88
2018-07-15T03:48:10.015Z,157.50
2018-07-15T03:49:09.985Z,185.63
2018-07-15T03:50:09.963Z,219.38
2018-07-15T03:51:09.937Z,230.63
2018-07-15T03:52:09.909Z,236.25
2018-07-15T03:53:09.887Z,264.38
2018-07-15T03:54:09.861Z,264.38
2018-07-15T03:55:09.846Z,275.63
2018-07-15T03:56:09.806Z,281.25
2018-07-15T03:57:09.780Z,286.88
2018-07-15T03:58:09.753Z,292.50
2018-07-15T03:59:09.726Z,303.75
2018-07-15T04:00:09.705Z,309.38
2018-07-15T04:01:09.676Z,326.25
2018-07-15T04:02:09.649Z,326.25
2018-07-15T04:03:09.623Z,337.50
2018-07-15T04:04:09.598Z,337.50
2018-07-15T04:05:09.575Z,360.00
2018-07-15T04:06:09.549Z,360.00
2018-07-15T04:07:09.523Z,371.25
2018-07-15T04:08:09.497Z,376.88
2018-07-15T04:09:09.475Z,388.13
2018-07-15T04:10:09.448Z,399.38
2018-07-15T04:11:09.421Z,405.00
2018-07-15T04:12:09.597Z,410.63
2018-07-15T04:13:09.374Z,421.88
2018-07-15T04:14:09.348Z,433.13
2018-07-15T04:15:09.322Z,438.75
2018-07-15T04:16:09.298Z,450.00
2018-07-15T04:17:09.279Z,455.63
2018-07-15T04:18:09.248Z,466.88
2018-07-15T04:19:09.424Z,478.13
2018-07-15T04:20:09.401Z,483.75
2018-07-15T04:21:09.171Z,348.75
2018-07-15T04:22:09.148Z,500.63
2018-07-15T04:23:09.123Z,511.88
2018-07-15T04:24:09.098Z,523.13
2018-07-15T04:25:09.076Z,540.00
2018-07-15T04:26:09.051Z,545.63
2018-07-15T04:27:09.031Z,556.88
2018-07-15T04:28:09.043Z,562.50
2018-07-15T04:29:08.977Z,573.75
2018-07-15T04:30:08.953Z,579.38
2018-07-15T04:31:08.928Z,590.63
2018-07-15T04:32:08.903Z,601.88
2018-07-15T04:33:08.880Z,613.13
2018-07-15T04:34:08.857Z,630.00
2018-07-15T04:35:08.831Z,630.00
2018-07-15T04:36:08.810Z,635.63
2018-07-15T04:37:08.787Z,641.25
2018-07-15T04:38:08.762Z,708.75
2018-07-15T04:39:08.738Z,663.75
2018-07-15T04:40:08.713Z,680.63
2018-07-15T04:41:08.896Z,686.25
2018-07-15T04:42:09.164Z,697.50
2018-07-15T04:43:08.641Z,708.75
2018-07-15T04:44:08.617Z,714.38
2018-07-15T04:45:08.596Z,720.00
2018-07-15T04:46:08.574Z,742.50
2018-07-15T04:47:08.549Z,753.75
2018-07-15T04:48:08.525Z,759.38
2018-07-15T04:49:08.501Z,765.00
2018-07-15T04:50:08.479Z,770.63
2018-07-15T04:51:08.458Z,793.13
2018-07-15T04:52:08.431Z,810.00
2018-07-15T04:53:08.410Z,821.25
2018-07-15T04:54:08.388Z,826.88
2018-07-15T04:55:08.364Z,832.50
2018-07-15T04:56:08.348Z,826.88
2018-07-15T04:57:08.319Z,832.50
2018-07-15T04:58:08.300Z,849.38
2018-07-15T04:59:08.271Z,871.88
2018-07-15T05:00:08.253Z,871.88
2018-07-15T05:01:08.228Z,888.75
2018-07-15T05:02:08.247Z,877.50
2018-07-15T05:03:08.183Z,894.38
2018-07-15T05:04:08.365Z,911.25
2018-07-15T05:05:08.139Z,916.88
2018-07-15T05:06:08.320Z,928.13
2018-07-15T05:07:08.103Z,945.00
2018-07-15T05:08:08.076Z,956.25
2018-07-15T05:09:08.051Z,973.13
2018-07-15T05:10:50.382Z,961.88
2018-07-15T05:11:50.162Z,990.00
2018-07-15T05:12:50.138Z,1012.50
2018-07-15T05:13:50.118Z,1057.50
2018-07-15T05:15:32.448Z,1108.13
2018-07-15T05:57:59.466Z,1749.38
2018-07-15T05:58:59.221Z,1743.75
2018-07-15T05:59:59.199Z,1755.00
2018-07-15T06:00:59.182Z,1811.25
2018-07-15T06:01:59.161Z,1833.75
2018-07-15T06:02:59.343Z,1833.75
2018-07-15T06:04:01.748Z,1873.13
2018-07-15T06:04:59.308Z,1878.75
2018-07-15T06:05:59.076Z,1884.38
2018-07-15T06:06:59.257Z,1890.00
2018-07-15T06:10:05.700Z,1901.25
2018-07-15T06:11:05.682Z,1901.25
2018-07-15T06:12:06.670Z,1957.50
2018-07-15T06:13:05.440Z,1996.88
2018-07-15T06:14:05.429Z,1974.38
2018-07-15T06:15:05.610Z,1951.88
2018-07-15T06:16:05.381Z,1974.38
2018-07-15T06:17:05.632Z,1935.00
2018-07-15T06:18:47.759Z,1895.63
2018-07-15T06:19:47.539Z,1906.88
2018-07-15T06:20:47.735Z,1901.25
2018-07-15T06:21:47.506Z,1940.63
2018-07-15T06:22:47.516Z,1861.88
2018-07-15T06:23:47.462Z,1788.75
2018-07-15T06:24:47.446Z,1710.00
2018-07-15T06:25:47.423Z,1721.25
2018-07-15T06:26:47.408Z,1693.13
2018-07-15T06:27:47.592Z,1670.63
2018-07-15T06:28:47.573Z,1625.63
2018-07-15T06:29:47.351Z,1580.63
2018-07-15T06:30:47.534Z,1490.63
2018-07-15T06:31:47.599Z,1378.13
2018-07-15T06:32:47.496Z,1299.38
2018-07-15T06:33:47.278Z,1248.75
2018-07-15T06:34:47.460Z,1215.00
2018-07-15T06:35:47.450Z,1186.88
2018-07-15T06:36:47.427Z,1147.50
2018-07-15T06:37:47.202Z,1141.88
2018-07-15T06:38:47.383Z,1141.88
2018-07-15T06:39:47.369Z,1141.88
2018-07-15T06:40:47.146Z,1220.63
2018-07-15T07:00:46.898Z,2778.75
2018-07-15T07:01:45.516Z,2716.88
2018-07-15T07:02:45.502Z,2593.13
2018-07-15T07:03:45.483Z,2559.38
2018-07-15T07:04:45.467Z,2593.13
2018-07-15T07:05:45.447Z,2610.00
2018-07-15T07:06:45.430Z,2626.88
2018-07-15T07:07:45.531Z,2671.88
2018-07-15T07:08:45.394Z,2632.50
2018-07-15T07:09:45.377Z,2683.13
2018-07-15T07:12:27.501Z,2728.13
2018-07-15T07:13:27.492Z,2671.88
2018-07-15T07:14:27.265Z,2570.63
2018-07-15T07:15:27.453Z,2683.13
2018-07-15T07:16:27.236Z,2615.63
2018-07-15T07:18:51.733Z,2722.50
2018-07-15T07:19:51.718Z,2677.50
2018-07-15T07:20:51.716Z,2649.38
2018-07-15T07:21:51.485Z,2694.38
2018-07-15T07:22:51.669Z,2750.63
2018-07-15T07:23:51.654Z,2694.38
2018-07-15T07:24:51.638Z,2739.38
2018-07-15T07:25:51.626Z,2745.00
2018-07-15T07:26:51.605Z,2705.63
2018-07-15T07:27:51.591Z,2722.50
2018-07-15T07:28:51.380Z,2801.25
2018-07-15T07:29:51.358Z,2812.50
2018-07-15T07:30:51.496Z,2885.63
2018-07-15T07:31:51.329Z,2846.25
2018-07-15T07:32:51.520Z,2778.75
2018-07-15T07:33:51.498Z,2812.50
2018-07-15T07:34:51.281Z,2874.38
2018-07-15T07:36:36.245Z,2919.38
2018-07-15T07:37:33.406Z,2885.63
2018-07-15T07:38:33.393Z,2885.63
2018-07-15T07:39:33.380Z,2863.13
2018-07-15T07:40:33.364Z,2823.75
2018-07-15T07:41:33.348Z,2953.13
2018-07-15T07:42:33.833Z,2885.63
2018-07-15T07:43:33.318Z,2851.88
2018-07-15T07:44:33.300Z,2851.88
2018-07-15T07:45:33.285Z,2998.13
2018-07-15T07:46:33.270Z,2953.13
2018-07-15T07:47:33.257Z,2970.00
2018-07-15T07:48:33.245Z,3088.13
2018-07-15T07:49:33.231Z,3121.88
2018-07-15T07:50:33.222Z,3133.13
2018-07-15T07:51:33.197Z,3048.75
2018-07-15T07:52:33.183Z,2070.00
2018-07-15T07:53:33.167Z,1608.75
2018-07-15T07:54:33.151Z,3054.38
2018-07-15T07:55:33.136Z,2947.50
2018-07-15T07:56:33.121Z,2835.00
2018-07-15T07:57:33.106Z,2896.88
2018-07-15T07:58:33.091Z,2953.13
2018-07-15T07:59:33.078Z,2244.38
2018-07-15T08:00:33.268Z,2970.00
2018-07-15T08:01:33.049Z,3031.88
2018-07-15T08:02:33.034Z,3099.38
2018-07-15T08:03:33.018Z,2981.25
2018-07-15T08:04:33.204Z,2885.63
2018-07-15T08:05:32.988Z,2941.88
2018-07-15T08:06:32.974Z,3031.88
2018-07-15T08:07:33.015Z,3054.38
2018-07-15T08:08:33.147Z,3105.00
2018-07-15T08:09:33.134Z,3110.63
2018-07-15T08:10:33.119Z,3178.13
2018-07-15T08:11:33.112Z,3256.88
2018-07-15T08:12:32.894Z,3330.00
2018-07-15T08:13:33.079Z,3223.13
2018-07-15T08:14:33.065Z,3200.63
2018-07-15T08:15:33.056Z,3318.75
2018-07-15T08:16:33.047Z,3290.63
2018-07-15T08:17:33.025Z,3256.88
2018-07-15T08:18:33.010Z,3318.75
2018-07-15T08:19:33.003Z,3133.13
2018-07-15T08:26:10.267Z,3076.88
2018-07-15T08:27:10.263Z,3256.88
2018-07-15T08:28:10.111Z,3133.13
2018-07-15T09:06:27.316Z,3909.38
2018-07-15T09:07:24.676Z,3825.00
2018-07-15T09:08:24.664Z,3088.13
2018-07-15T09:09:24.452Z,1355.63
2018-07-15T09:10:24.438Z,1541.25
2018-07-15T09:11:24.425Z,1451.25
2018-07-15T09:12:24.615Z,1479.38
2018-07-15T09:13:24.403Z,1575.00
2018-07-15T09:14:24.410Z,1361.25
2018-07-15T09:15:24.372Z,1226.25
2018-07-15T09:16:27.183Z,1372.50
2018-07-15T09:17:24.549Z,1462.50
2018-07-15T09:18:24.559Z,3408.75
2018-07-15T09:19:24.321Z,1282.50
2018-07-15T09:20:24.508Z,3633.75
2018-07-15T09:21:24.290Z,1333.13
2018-07-15T09:22:24.480Z,1333.13
2018-07-15T09:23:24.464Z,1282.50
2018-07-15T09:24:24.452Z,1423.13
2018-07-15T09:26:06.593Z,1305.00
2018-07-15T09:27:06.580Z,1237.50
2018-07-15T09:28:06.563Z,2233.13
2018-07-15T09:29:06.347Z,1861.88
2018-07-15T09:30:06.348Z,4078.13
2018-07-15T09:31:06.315Z,4134.38
2018-07-15T09:32:06.301Z,4213.13
2018-07-15T09:33:06.284Z,4230.00
2018-07-15T09:34:06.475Z,4218.75
2018-07-15T09:35:06.254Z,3735.00
2018-07-15T09:36:06.242Z,3993.75
2018-07-15T09:37:06.227Z,4235.63
2018-07-15T09:38:06.213Z,4348.13
2018-07-15T09:39:06.417Z,2694.38
2018-07-15T09:40:06.185Z,3431.25
2018-07-15T09:41:06.779Z,4674.38
2018-07-15T09:42:08.782Z,3774.38
2018-07-15T09:43:06.150Z,2868.75
2018-07-15T09:44:06.135Z,2986.88
2018-07-15T09:45:06.118Z,1648.13
2018-07-15T09:46:06.105Z,1552.50
2018-07-15T09:47:06.095Z,1620.00
2018-07-15T09:48:06.280Z,1771.88
2018-07-15T09:49:06.272Z,1777.50
2018-07-15T09:50:06.057Z,1929.38
2018-07-15T09:51:06.040Z,1850.63
2018-07-15T09:52:06.026Z,1665.00
2018-07-15T09:53:06.009Z,1580.63
2018-07-15T09:54:06.196Z,1501.88
2018-07-15T09:55:06.185Z,1473.75
2018-07-15T09:56:06.168Z,1501.88
2018-07-15T09:57:06.153Z,1580.63
2018-07-15T09:58:05.937Z,1648.13
2018-07-15T09:59:05.921Z,1693.13
2018-07-15T10:00:06.114Z,1963.13
2018-07-15T10:01:05.895Z,4837.50
2018-07-15T10:02:05.888Z,4460.63
2018-07-15T10:03:05.861Z,2334.38
2018-07-15T10:04:05.846Z,2154.38
2018-07-15T10:05:05.834Z,1980.00
2018-07-15T10:06:05.815Z,1929.38
2018-07-15T10:07:05.798Z,1710.00
2018-07-15T10:08:05.786Z,1620.00
2018-07-15T10:09:05.772Z,1552.50
2018-07-15T10:10:05.755Z,1535.63
2018-07-15T10:11:05.739Z,1513.13
2018-07-15T10:12:05.931Z,1440.00
2018-07-15T10:13:05.910Z,1395.00
2018-07-15T10:14:05.693Z,1406.25
2018-07-15T10:15:05.883Z,1524.38
2018-07-15T10:16:05.869Z,1681.88
2018-07-15T10:17:05.844Z,1856.25
2018-07-15T10:18:05.627Z,4201.88
2018-07-15T10:19:05.618Z,3076.88
2018-07-15T10:20:05.595Z,1873.13
2018-07-15T10:21:05.578Z,1890.00
2018-07-15T10:22:05.563Z,1901.25
2018-07-15T10:23:05.551Z,1918.13
2018-07-15T10:24:05.531Z,1850.63
2018-07-15T10:25:05.513Z,1873.13
2018-07-15T10:26:05.497Z,1968.75
2018-07-15T10:27:05.481Z,2103.75
2018-07-15T10:28:05.465Z,2165.63
2018-07-15T10:29:05.452Z,2356.88
2018-07-15T10:30:05.440Z,2655.00
2018-07-15T10:31:05.417Z,3009.38
2018-07-15T10:32:05.405Z,3808.13
2018-07-15T10:33:05.405Z,2458.13
2018-07-15T10:34:05.675Z,2610.00
2018-07-15T10:35:05.353Z,2514.38
2018-07-15T10:36:05.341Z,4640.63
2018-07-15T10:37:05.329Z,4815.00
2018-07-15T10:38:05.512Z,2120.63
2018-07-15T10:39:05.318Z,2047.50
2018-07-15T10:40:05.281Z,2030.63
2018-07-15T10:41:05.262Z,2182.50
2018-07-15T10:42:05.249Z,2160.00
2018-07-15T10:43:05.231Z,2255.63
2018-07-15T10:44:05.219Z,2525.63
2018-07-15T10:45:05.204Z,4635.00
2018-07-15T10:46:05.389Z,2840.63
2018-07-15T10:47:05.376Z,2520.00
2018-07-15T10:48:05.159Z,2480.63
2018-07-15T10:49:05.147Z,2598.75
2018-07-15T10:50:05.335Z,2638.13
2018-07-15T10:51:05.320Z,2385.00
2018-07-15T10:52:05.309Z,2491.88
2018-07-15T10:53:05.087Z,2176.88
2018-07-15T10:54:05.073Z,2025.00
2018-07-15T10:55:05.058Z,1906.88
2018-07-15T10:56:05.044Z,1771.88
2018-07-15T10:57:05.032Z,1726.88
2018-07-15T10:58:05.017Z,1693.13
2018-07-15T10:59:05.005Z,1676.25
2018-07-15T11:00:04.986Z,1704.38
2018-07-15T11:01:05.044Z,1777.50
2018-07-15T11:02:04.957Z,1906.88
2018-07-15T11:03:04.987Z,1929.38
2018-07-15T11:04:04.927Z,2008.13
2018-07-15T11:05:04.918Z,2244.38
2018-07-15T11:06:04.895Z,2542.50
2018-07-15T11:07:04.877Z,2598.75
2018-07-15T11:08:04.867Z,2289.38
2018-07-15T11:09:04.850Z,2199.38
2018-07-15T11:10:04.832Z,2503.13
2018-07-15T11:11:04.816Z,2086.88
2018-07-15T11:12:04.800Z,2019.38
2018-07-15T11:13:04.782Z,1951.88
2018-07-15T11:14:04.766Z,1940.63
2018-07-15T11:15:04.749Z,2036.25
2018-07-15T11:16:04.733Z,2086.88
2018-07-15T11:17:04.717Z,1861.88
2018-07-15T11:18:04.701Z,1755.00
2018-07-15T11:19:04.684Z,1743.75
2018-07-15T11:20:04.670Z,1743.75
2018-07-15T11:21:04.656Z,1766.25
2018-07-15T11:22:04.637Z,1794.38
2018-07-15T11:23:04.621Z,1856.25
2018-07-15T11:24:04.602Z,2019.38
2018-07-15T11:25:04.585Z,4764.38
2018-07-15T11:26:04.617Z,2981.25
2018-07-15T11:27:04.555Z,2362.50
2018-07-15T11:28:04.536Z,5568.75
2018-07-15T11:29:04.522Z,3026.25
2018-07-15T11:30:04.506Z,2092.50
2018-07-15T11:31:04.676Z,2941.88
2018-07-15T11:32:04.473Z,4213.13
2018-07-15T11:33:04.458Z,4584.38
2018-07-15T11:34:04.443Z,5310.00
2018-07-15T11:35:04.429Z,5220.00
2018-07-15T11:36:04.414Z,5191.88
2018-07-15T11:37:04.598Z,5062.50
2018-07-15T11:38:04.734Z,5124.38
2018-07-15T11:39:04.628Z,5259.38
2018-07-15T11:40:04.360Z,5163.75
2018-07-15T11:41:04.542Z,5360.63
2018-07-15T11:42:04.531Z,3183.75
2018-07-15T11:43:49.704Z,1901.25
2018-07-15T11:44:46.665Z,1828.13
2018-07-15T11:45:46.651Z,1839.38
2018-07-15T11:46:46.442Z,2070.00
2018-07-15T11:47:46.427Z,1861.88
2018-07-15T11:48:46.411Z,1861.88
2018-07-15T11:49:46.601Z,1951.88
2018-07-15T11:50:46.602Z,2986.88
2018-07-15T11:51:46.371Z,5360.63
2018-07-15T11:52:46.360Z,3279.38
2018-07-15T11:53:46.345Z,5332.50
2018-07-15T11:54:46.334Z,2475.00
2018-07-15T11:55:46.522Z,4528.13
2018-07-15T11:56:46.308Z,4764.38
2018-07-15T11:57:46.499Z,2300.63
2018-07-15T11:58:46.283Z,2193.75
2018-07-15T11:59:46.474Z,2047.50
2018-07-15T12:00:46.258Z,2964.38
2018-07-15T12:01:46.296Z,1755.00
2018-07-15T12:02:46.243Z,1845.00
2018-07-15T12:03:46.218Z,1710.00
2018-07-15T12:04:46.203Z,2615.63
2018-07-15T12:05:46.191Z,4140.00
2018-07-15T12:06:46.383Z,4725.00
2018-07-15T12:07:46.168Z,4803.75
2018-07-15T12:08:46.154Z,4741.88
2018-07-15T12:09:46.345Z,4843.13
2018-07-15T12:11:28.494Z,4708.13
2018-07-15T12:12:28.279Z,4781.25
2018-07-15T12:14:11.438Z,5090.63
2018-07-15T12:15:10.646Z,5011.88
2018-07-15T12:16:13.631Z,4989.38
2018-07-15T12:17:10.596Z,2199.38
2018-07-15T12:18:10.381Z,2137.50
2018-07-15T12:19:10.577Z,2131.88
2018-07-15T12:20:10.360Z,5405.63
2018-07-15T12:21:10.352Z,2694.38
2018-07-15T12:22:10.335Z,5287.50
2018-07-15T12:24:34.851Z,1890.00
2018-07-15T12:25:34.636Z,1591.88
2018-07-15T12:26:34.625Z,1496.25
2018-07-15T12:27:34.618Z,1406.25
2018-07-15T12:29:16.966Z,1321.88
2018-07-15T12:30:16.754Z,1338.75
2018-07-15T12:31:18.153Z,1738.13
2018-07-15T12:32:16.935Z,1423.13
2018-07-15T12:33:16.714Z,1243.13
2018-07-15T12:34:16.704Z,1226.25
2018-07-15T12:35:19.511Z,1310.63
2018-07-15T12:36:16.899Z,2930.63
2018-07-15T12:37:59.020Z,4719.38
2018-07-15T12:38:58.802Z,4556.25
2018-07-15T12:39:58.789Z,4314.38
2018-07-15T12:40:58.779Z,4308.75
2018-07-15T12:41:58.763Z,4488.75
2018-07-15T12:42:58.951Z,4668.75
2018-07-15T12:43:58.940Z,4680.00
2018-07-15T12:44:58.925Z,4741.88
2018-07-15T12:45:58.913Z,3307.50
2018-07-15T12:46:58.900Z,2221.88
2018-07-15T12:47:58.689Z,5028.75
2018-07-15T12:48:58.676Z,4809.38
2018-07-15T12:49:58.665Z,4860.00
2018-07-15T12:50:58.856Z,4837.50
2018-07-15T12:51:58.892Z,4826.25
2018-07-15T12:52:58.834Z,2058.75
2018-07-15T12:53:58.618Z,1710.00
2018-07-15T12:54:58.607Z,1693.13
2018-07-15T12:55:58.596Z,1901.25
2018-07-15T12:56:58.584Z,4995.00
2018-07-15T12:57:58.571Z,4843.13
2018-07-15T12:59:01.883Z,1625.63
2018-07-15T13:00:01.177Z,1687.50
2018-07-15T13:01:40.901Z,1209.38
2018-07-15T13:02:40.958Z,1164.38
2018-07-15T13:03:40.882Z,1153.13
2018-07-15T13:04:40.871Z,1113.75
2018-07-15T13:05:40.851Z,1096.88
2018-07-15T13:06:40.838Z,1091.25
2018-07-15T13:07:40.622Z,1125.00
2018-07-15T13:08:40.852Z,3948.75
2018-07-15T13:09:40.848Z,4280.63
2018-07-15T13:10:40.578Z,4381.88
2018-07-15T13:11:40.563Z,4516.88
2018-07-15T13:12:40.552Z,4426.88
2018-07-15T13:13:41.811Z,4415.63
2018-07-15T13:14:40.726Z,4494.38
2018-07-15T13:15:40.714Z,3763.13
2018-07-15T13:16:40.699Z,3549.38
2018-07-15T13:17:40.485Z,4415.63
2018-07-15T13:18:40.470Z,4426.88
2018-07-15T13:19:40.660Z,4466.25
2018-07-15T13:20:40.447Z,4511.25
2018-07-15T13:21:40.633Z,4269.38
2018-07-15T13:22:40.619Z,4252.50
2018-07-15T13:23:40.609Z,4494.38
2018-07-15T13:25:23.165Z,4117.50
2018-07-15T13:26:26.385Z,4291.88
2018-07-15T13:29:47.157Z,4550.63
2018-07-15T13:30:47.041Z,1603.13
2018-07-15T13:31:47.025Z,1597.50
2018-07-15T13:44:02.817Z,1423.13
2018-07-15T13:45:46.371Z,1636.88
2018-07-15T13:46:44.953Z,2435.63
2018-07-15T13:48:25.883Z,4331.25
2018-07-15T13:49:25.676Z,3043.13
2018-07-15T13:50:25.664Z,2328.75
2018-07-15T13:51:25.643Z,2733.75
2018-07-15T13:52:25.634Z,4050.00
2018-07-15T13:53:25.617Z,1648.13
2018-07-15T13:54:25.607Z,1693.13
2018-07-15T13:55:25.793Z,1440.00
2018-07-15T13:56:25.579Z,1321.88
2018-07-15T13:57:25.565Z,1265.63
2018-07-15T13:58:25.752Z,1237.50
2018-07-15T13:59:31.377Z,1215.00
2018-07-15T14:00:25.727Z,1220.63
2018-07-15T14:01:26.116Z,1226.25
2018-07-15T14:02:25.703Z,1271.25
2018-07-15T14:03:25.484Z,1288.13
2018-07-15T14:04:25.676Z,1310.63
2018-07-15T14:05:25.656Z,2835.00
2018-07-15T14:06:25.439Z,3470.63
2018-07-15T14:07:25.423Z,3645.00
2018-07-15T14:08:25.406Z,3600.00
2018-07-15T14:09:25.396Z,3588.75
2018-07-15T14:10:25.582Z,3780.00
2018-07-15T14:11:25.569Z,3931.88
2018-07-15T14:12:25.352Z,3881.25
2018-07-15T14:13:25.339Z,3881.25
2018-07-15T14:14:25.334Z,3808.13
2018-07-15T14:15:25.509Z,3988.13
2018-07-15T14:16:25.295Z,3948.75
2018-07-15T14:17:25.279Z,3684.38
2018-07-15T14:18:25.276Z,3706.88
2018-07-15T14:19:25.273Z,3735.00
2018-07-15T14:20:28.471Z,3712.50
2018-07-15T14:21:25.488Z,4140.00
2018-07-15T14:22:28.041Z,4207.50
2018-07-15T14:23:25.410Z,2902.50
2018-07-15T14:24:25.404Z,3105.00
2018-07-15T14:25:25.187Z,3133.13
2018-07-15T14:26:25.175Z,1726.88
2018-07-15T14:27:25.166Z,2885.63
2018-07-15T14:28:25.149Z,1276.88
2018-07-15T14:29:25.341Z,1108.13
2018-07-15T14:30:25.331Z,1040.63
2018-07-15T14:31:25.319Z,1018.13
2018-07-15T14:33:07.466Z,1006.88
2018-07-15T14:34:07.454Z,990.00
2018-07-15T14:35:07.645Z,995.63
2018-07-15T14:36:07.432Z,1001.25
2018-07-15T14:37:07.213Z,1006.88
2018-07-15T14:38:07.400Z,1119.38
2018-07-15T14:39:07.387Z,1096.88
2018-07-15T14:40:07.371Z,1203.75
2018-07-15T14:41:07.356Z,4241.25